sensor_id;sensor_type;location;lat;lon;timestamp;temperature;humidity
5960;DHT22;3006;50.956;7.002;2022-12-07T00:01:27;6.50;99.90
5960;DHT22;3006;50.956;7.002;2022-12-07T00:03:57;6.50;99.90
5960;DHT22;3006;50.956;7.002;2022-12-07T00:06:31;6.50;99.90
5960;DHT22;3006;50.956;7.002;2022-12-07T00:09:00;6.50;99.90
5960;DHT22;3006;50.956;7.002;2022-12-07T00:11:29;6.40;99.90
5960;DHT22;3006;50.956;7.002;2022-12-07T00:13:59;6.50;99.90
5960;DHT22;3006;50.956;7.002;2022-12-07T00:16:29;6.50;99.90
5960;DHT22;3006;50.956;7.002;2022-12-07T00:18:58;6.40;99.90
5960;DHT22;3006;50.956;7.002;2022-12-07T00:21:28;6.40;99.90
5960;DHT22;3006;50.956;7.002;2022-12-07T00:23:57;6.40;99.90
5960;DHT22;3006;50.956;7.002;2022-12-07T00:26:27;6.40;99.90
5960;DHT22;3006;50.956;7.002;2022-12-07T00:29:04;6.40;99.90
5960;DHT22;3006;50.956;7.002;2022-12-07T00:31:34;6.50;99.90
5960;DHT22;3006;50.956;7.002;2022-12-07T00:34:06;6.40;99.90
5960;DHT22;3006;50.956;7.002;2022-12-07T00:36:35;6.40;99.90
5960;DHT22;3006;50.956;7.002;2022-12-07T00:39:03;6.40;99.90
5960;DHT22;3006;50.956;7.002;2022-12-07T00:41:31;6.40;99.90
5960;DHT22;3006;50.956;7.002;2022-12-07T00:44:00;6.40;99.90
5960;DHT22;3006;50.956;7.002;2022-12-07T00:46:29;6.30;99.90
5960;DHT22;3006;50.956;7.002;2022-12-07T00:48:57;6.40;99.90
5960;DHT22;3006;50.956;7.002;2022-12-07T00:51:25;6.40;99.90
5960;DHT22;3006;50.956;7.002;2022-12-07T00:53:53;6.40;99.90
5960;DHT22;3006;50.956;7.002;2022-12-07T00:56:23;6.30;99.90
5960;DHT22;3006;50.956;7.002;2022-12-07T00:58:52;6.40;99.90
5960;DHT22;3006;50.956;7.002;2022-12-07T01:01:23;6.40;99.90
5960;DHT22;3006;50.956;7.002;2022-12-07T01:03:51;6.50;99.90
5960;DHT22;3006;50.956;7.002;2022-12-07T01:06:21;6.40;99.90
5960;DHT22;3006;50.956;7.002;2022-12-07T01:08:49;6.50;99.90
5960;DHT22;3006;50.956;7.002;2022-12-07T01:11:20;6.50;99.90
5960;DHT22;3006;50.956;7.002;2022-12-07T01:13:50;6.50;99.90
5960;DHT22;3006;50.956;7.002;2022-12-07T01:16:19;6.40;99.90
5960;DHT22;3006;50.956;7.002;2022-12-07T01:18:50;6.40;99.90
5960;DHT22;3006;50.956;7.002;2022-12-07T01:21:20;6.40;99.90
5960;DHT22;3006;50.956;7.002;2022-12-07T01:23:49;6.40;99.90
5960;DHT22;3006;50.956;7.002;2022-12-07T01:26:20;6.40;99.90
5960;DHT22;3006;50.956;7.002;2022-12-07T01:28:48;6.40;99.90
5960;DHT22;3006;50.956;7.002;2022-12-07T01:31:18;6.40;99.90
5960;DHT22;3006;50.956;7.002;2022-12-07T01:33:50;6.40;99.90
5960;DHT22;3006;50.956;7.002;2022-12-07T01:36:20;6.40;99.90
5960;DHT22;3006;50.956;7.002;2022-12-07T01:38:50;6.40;99.90
5960;DHT22;3006;50.956;7.002;2022-12-07T01:41:20;6.40;99.90
5960;DHT22;3006;50.956;7.002;2022-12-07T01:44:15;6.40;99.90
5960;DHT22;3006;50.956;7.002;2022-12-07T01:46:44;6.30;99.90
5960;DHT22;3006;50.956;7.002;2022-12-07T01:49:20;6.30;99.90
5960;DHT22;3006;50.956;7.002;2022-12-07T01:51:50;6.40;99.90
5960;DHT22;3006;50.956;7.002;2022-12-07T01:54:20;6.40;99.90
5960;DHT22;3006;50.956;7.002;2022-12-07T01:56:51;6.40;99.90
5960;DHT22;3006;50.956;7.002;2022-12-07T01:59:23;6.40;99.90
5960;DHT22;3006;50.956;7.002;2022-12-07T02:01:53;6.40;99.90
5960;DHT22;3006;50.956;7.002;2022-12-07T02:04:23;6.40;99.90
5960;DHT22;3006;50.956;7.002;2022-12-07T02:06:52;6.40;99.90
5960;DHT22;3006;50.956;7.002;2022-12-07T02:09:22;6.40;99.90
5960;DHT22;3006;50.956;7.002;2022-12-07T02:11:50;6.40;99.90
5960;DHT22;3006;50.956;7.002;2022-12-07T02:14:18;6.40;99.90
5960;DHT22;3006;50.956;7.002;2022-12-07T02:17:02;6.40;99.90
5960;DHT22;3006;50.956;7.002;2022-12-07T02:20:10;6.50;99.90
5960;DHT22;3006;50.956;7.002;2022-12-07T02:22:55;6.40;99.90
5960;DHT22;3006;50.956;7.002;2022-12-07T02:25:39;6.50;99.90
5960;DHT22;3006;50.956;7.002;2022-12-07T02:28:17;6.40;99.90
5960;DHT22;3006;50.956;7.002;2022-12-07T02:30:48;6.40;99.90
5960;DHT22;3006;50.956;7.002;2022-12-07T02:33:23;6.40;99.90
5960;DHT22;3006;50.956;7.002;2022-12-07T02:35:57;6.40;99.90
5960;DHT22;3006;50.956;7.002;2022-12-07T02:38:32;6.40;99.90
5960;DHT22;3006;50.956;7.002;2022-12-07T02:41:06;6.40;99.90
5960;DHT22;3006;50.956;7.002;2022-12-07T02:43:39;6.30;99.90
5960;DHT22;3006;50.956;7.002;2022-12-07T02:46:11;6.30;99.90
5960;DHT22;3006;50.956;7.002;2022-12-07T02:48:43;6.40;99.90
5960;DHT22;3006;50.956;7.002;2022-12-07T02:51:11;6.40;99.90
5960;DHT22;3006;50.956;7.002;2022-12-07T02:53:41;6.30;99.90
5960;DHT22;3006;50.956;7.002;2022-12-07T02:56:16;6.20;99.90
5960;DHT22;3006;50.956;7.002;2022-12-07T02:58:57;6.20;99.90
5960;DHT22;3006;50.956;7.002;2022-12-07T03:01:37;6.30;99.90
5960;DHT22;3006;50.956;7.002;2022-12-07T03:04:20;6.30;99.90
5960;DHT22;3006;50.956;7.002;2022-12-07T03:06:56;6.30;99.90
5960;DHT22;3006;50.956;7.002;2022-12-07T03:09:32;6.30;99.90
5960;DHT22;3006;50.956;7.002;2022-12-07T03:12:10;6.30;99.90
5960;DHT22;3006;50.956;7.002;2022-12-07T03:14:45;6.30;99.90
5960;DHT22;3006;50.956;7.002;2022-12-07T03:17:18;6.30;99.90
5960;DHT22;3006;50.956;7.002;2022-12-07T03:19:48;6.20;99.90
5960;DHT22;3006;50.956;7.002;2022-12-07T03:22:19;6.20;99.90
5960;DHT22;3006;50.956;7.002;2022-12-07T03:24:52;6.20;99.90
5960;DHT22;3006;50.956;7.002;2022-12-07T03:27:24;6.20;99.90
5960;DHT22;3006;50.956;7.002;2022-12-07T03:29:58;6.30;99.90
5960;DHT22;3006;50.956;7.002;2022-12-07T03:32:33;6.30;99.90
5960;DHT22;3006;50.956;7.002;2022-12-07T03:35:05;6.30;99.90
5960;DHT22;3006;50.956;7.002;2022-12-07T03:37:40;6.30;99.90
5960;DHT22;3006;50.956;7.002;2022-12-07T03:40:15;6.30;99.90
5960;DHT22;3006;50.956;7.002;2022-12-07T03:42:44;6.30;99.90
5960;DHT22;3006;50.956;7.002;2022-12-07T03:45:12;6.30;99.90
5960;DHT22;3006;50.956;7.002;2022-12-07T03:47:47;6.30;99.90
5960;DHT22;3006;50.956;7.002;2022-12-07T03:50:23;6.20;99.90
5960;DHT22;3006;50.956;7.002;2022-12-07T03:52:55;6.20;99.90
5960;DHT22;3006;50.956;7.002;2022-12-07T03:55:28;6.20;99.90
5960;DHT22;3006;50.956;7.002;2022-12-07T03:58:00;6.20;99.90
5960;DHT22;3006;50.956;7.002;2022-12-07T04:00:30;6.20;99.90
5960;DHT22;3006;50.956;7.002;2022-12-07T04:02:59;6.20;99.90
5960;DHT22;3006;50.956;7.002;2022-12-07T04:05:27;6.20;99.90
5960;DHT22;3006;50.956;7.002;2022-12-07T04:07:55;6.20;99.90
5960;DHT22;3006;50.956;7.002;2022-12-07T04:10:24;6.20;99.90
5960;DHT22;3006;50.956;7.002;2022-12-07T04:12:52;6.20;99.90
5960;DHT22;3006;50.956;7.002;2022-12-07T04:15:20;6.30;99.90
5960;DHT22;3006;50.956;7.002;2022-12-07T04:17:48;6.30;99.90
5960;DHT22;3006;50.956;7.002;2022-12-07T04:20:17;6.20;99.90
5960;DHT22;3006;50.956;7.002;2022-12-07T04:22:45;6.30;99.90
5960;DHT22;3006;50.956;7.002;2022-12-07T04:25:13;6.20;99.90
5960;DHT22;3006;50.956;7.002;2022-12-07T04:27:41;6.20;99.90
5960;DHT22;3006;50.956;7.002;2022-12-07T04:30:10;6.20;99.90
5960;DHT22;3006;50.956;7.002;2022-12-07T04:32:38;6.30;99.90
5960;DHT22;3006;50.956;7.002;2022-12-07T04:35:07;6.20;99.90
5960;DHT22;3006;50.956;7.002;2022-12-07T04:37:36;6.20;99.90
5960;DHT22;3006;50.956;7.002;2022-12-07T04:40:07;6.20;99.90
5960;DHT22;3006;50.956;7.002;2022-12-07T04:42:37;6.20;99.90
5960;DHT22;3006;50.956;7.002;2022-12-07T04:45:07;6.30;99.90
5960;DHT22;3006;50.956;7.002;2022-12-07T04:47:35;6.30;99.90
5960;DHT22;3006;50.956;7.002;2022-12-07T04:50:04;6.20;99.90
5960;DHT22;3006;50.956;7.002;2022-12-07T04:52:32;6.20;99.90
5960;DHT22;3006;50.956;7.002;2022-12-07T04:55:02;6.20;99.90
5960;DHT22;3006;50.956;7.002;2022-12-07T04:57:30;6.20;99.90
5960;DHT22;3006;50.956;7.002;2022-12-07T04:59:58;6.30;99.90
5960;DHT22;3006;50.956;7.002;2022-12-07T05:02:26;6.30;99.90
5960;DHT22;3006;50.956;7.002;2022-12-07T05:04:55;6.30;99.90
5960;DHT22;3006;50.956;7.002;2022-12-07T05:07:23;6.40;99.90
5960;DHT22;3006;50.956;7.002;2022-12-07T05:09:51;6.30;99.90
5960;DHT22;3006;50.956;7.002;2022-12-07T05:12:20;6.30;99.90
5960;DHT22;3006;50.956;7.002;2022-12-07T05:14:48;6.30;99.90
5960;DHT22;3006;50.956;7.002;2022-12-07T05:17:16;6.30;99.90
5960;DHT22;3006;50.956;7.002;2022-12-07T05:19:44;6.30;99.90
5960;DHT22;3006;50.956;7.002;2022-12-07T05:22:12;6.40;99.90
5960;DHT22;3006;50.956;7.002;2022-12-07T05:24:42;6.30;99.90
5960;DHT22;3006;50.956;7.002;2022-12-07T05:27:10;6.40;99.90
5960;DHT22;3006;50.956;7.002;2022-12-07T05:29:39;6.40;99.90
5960;DHT22;3006;50.956;7.002;2022-12-07T05:32:07;6.40;99.90
5960;DHT22;3006;50.956;7.002;2022-12-07T05:34:35;6.30;99.90
5960;DHT22;3006;50.956;7.002;2022-12-07T05:37:03;6.30;99.90
5960;DHT22;3006;50.956;7.002;2022-12-07T05:39:31;6.40;99.90
5960;DHT22;3006;50.956;7.002;2022-12-07T05:41:59;6.50;99.90
5960;DHT22;3006;50.956;7.002;2022-12-07T05:44:42;6.40;99.90
5960;DHT22;3006;50.956;7.002;2022-12-07T05:47:10;6.40;99.90
5960;DHT22;3006;50.956;7.002;2022-12-07T05:49:38;6.40;99.90
5960;DHT22;3006;50.956;7.002;2022-12-07T05:52:08;6.30;99.90
5960;DHT22;3006;50.956;7.002;2022-12-07T05:54:36;6.30;99.90
5960;DHT22;3006;50.956;7.002;2022-12-07T05:57:04;6.30;99.90
5960;DHT22;3006;50.956;7.002;2022-12-07T05:59:32;6.30;99.90
5960;DHT22;3006;50.956;7.002;2022-12-07T06:02:02;6.30;99.90
5960;DHT22;3006;50.956;7.002;2022-12-07T06:04:32;6.20;99.90
5960;DHT22;3006;50.956;7.002;2022-12-07T06:07:01;6.20;99.90
5960;DHT22;3006;50.956;7.002;2022-12-07T06:09:29;6.20;99.90
5960;DHT22;3006;50.956;7.002;2022-12-07T06:11:58;6.20;99.90
5960;DHT22;3006;50.956;7.002;2022-12-07T06:14:43;6.10;99.90
5960;DHT22;3006;50.956;7.002;2022-12-07T06:17:13;6.20;99.90
5960;DHT22;3006;50.956;7.002;2022-12-07T06:19:41;6.20;99.90
5960;DHT22;3006;50.956;7.002;2022-12-07T06:22:10;6.10;99.90
5960;DHT22;3006;50.956;7.002;2022-12-07T06:24:39;6.10;99.90
5960;DHT22;3006;50.956;7.002;2022-12-07T06:27:07;6.00;99.90
5960;DHT22;3006;50.956;7.002;2022-12-07T06:29:35;6.00;99.90
5960;DHT22;3006;50.956;7.002;2022-12-07T06:32:04;6.00;99.90
5960;DHT22;3006;50.956;7.002;2022-12-07T06:34:34;6.00;99.90
5960;DHT22;3006;50.956;7.002;2022-12-07T06:37:02;6.00;99.90
5960;DHT22;3006;50.956;7.002;2022-12-07T06:39:30;6.00;99.90
5960;DHT22;3006;50.956;7.002;2022-12-07T06:41:59;6.00;99.90
5960;DHT22;3006;50.956;7.002;2022-12-07T06:44:27;6.10;99.90
5960;DHT22;3006;50.956;7.002;2022-12-07T06:46:55;6.00;99.90
5960;DHT22;3006;50.956;7.002;2022-12-07T06:49:44;6.00;99.90
5960;DHT22;3006;50.956;7.002;2022-12-07T06:52:13;6.00;99.90
5960;DHT22;3006;50.956;7.002;2022-12-07T06:54:40;6.10;99.90
5960;DHT22;3006;50.956;7.002;2022-12-07T06:57:09;6.10;99.90
5960;DHT22;3006;50.956;7.002;2022-12-07T06:59:37;6.10;99.90
5960;DHT22;3006;50.956;7.002;2022-12-07T07:02:05;6.10;99.90
5960;DHT22;3006;50.956;7.002;2022-12-07T07:04:33;6.10;99.90
5960;DHT22;3006;50.956;7.002;2022-12-07T07:07:02;6.10;99.90
5960;DHT22;3006;50.956;7.002;2022-12-07T07:09:30;6.10;99.90
5960;DHT22;3006;50.956;7.002;2022-12-07T07:11:58;6.10;99.90
5960;DHT22;3006;50.956;7.002;2022-12-07T07:14:26;6.10;99.90
5960;DHT22;3006;50.956;7.002;2022-12-07T07:16:55;6.10;99.90
5960;DHT22;3006;50.956;7.002;2022-12-07T07:19:23;6.10;99.90
5960;DHT22;3006;50.956;7.002;2022-12-07T07:21:51;6.00;99.90
5960;DHT22;3006;50.956;7.002;2022-12-07T07:24:20;6.10;99.90
5960;DHT22;3006;50.956;7.002;2022-12-07T07:26:48;6.10;99.90
5960;DHT22;3006;50.956;7.002;2022-12-07T07:29:16;6.20;99.90
5960;DHT22;3006;50.956;7.002;2022-12-07T07:31:44;6.20;99.90
5960;DHT22;3006;50.956;7.002;2022-12-07T07:34:13;6.20;99.90
5960;DHT22;3006;50.956;7.002;2022-12-07T07:36:41;6.20;99.90
5960;DHT22;3006;50.956;7.002;2022-12-07T07:39:09;6.20;99.90
5960;DHT22;3006;50.956;7.002;2022-12-07T07:41:40;6.30;99.90
5960;DHT22;3006;50.956;7.002;2022-12-07T07:44:12;6.30;99.90
5960;DHT22;3006;50.956;7.002;2022-12-07T07:46:40;6.30;99.90
5960;DHT22;3006;50.956;7.002;2022-12-07T07:49:09;6.30;99.90
5960;DHT22;3006;50.956;7.002;2022-12-07T07:51:37;6.40;99.90
5960;DHT22;3006;50.956;7.002;2022-12-07T07:54:05;6.40;99.90
5960;DHT22;3006;50.956;7.002;2022-12-07T07:56:33;6.40;99.90
5960;DHT22;3006;50.956;7.002;2022-12-07T07:59:03;6.50;99.90
5960;DHT22;3006;50.956;7.002;2022-12-07T08:01:31;6.40;99.90
5960;DHT22;3006;50.956;7.002;2022-12-07T08:03:59;6.40;99.90
5960;DHT22;3006;50.956;7.002;2022-12-07T08:06:27;6.30;99.90
5960;DHT22;3006;50.956;7.002;2022-12-07T08:08:58;6.30;99.90
5960;DHT22;3006;50.956;7.002;2022-12-07T08:11:26;6.40;99.90
5960;DHT22;3006;50.956;7.002;2022-12-07T08:13:54;6.50;99.90
5960;DHT22;3006;50.956;7.002;2022-12-07T08:16:24;6.40;99.90
5960;DHT22;3006;50.956;7.002;2022-12-07T08:18:52;6.40;99.90
5960;DHT22;3006;50.956;7.002;2022-12-07T08:21:20;6.40;99.90
5960;DHT22;3006;50.956;7.002;2022-12-07T08:23:48;6.50;99.90
5960;DHT22;3006;50.956;7.002;2022-12-07T08:26:17;6.40;99.90
5960;DHT22;3006;50.956;7.002;2022-12-07T08:28:45;6.40;99.90
5960;DHT22;3006;50.956;7.002;2022-12-07T08:31:14;6.40;99.90
5960;DHT22;3006;50.956;7.002;2022-12-07T08:33:46;6.40;99.90
5960;DHT22;3006;50.956;7.002;2022-12-07T08:36:14;6.40;99.90
5960;DHT22;3006;50.956;7.002;2022-12-07T08:38:43;6.40;99.90
5960;DHT22;3006;50.956;7.002;2022-12-07T08:41:31;6.30;99.90
5960;DHT22;3006;50.956;7.002;2022-12-07T08:43:59;6.30;99.90
5960;DHT22;3006;50.956;7.002;2022-12-07T08:46:31;6.30;99.90
5960;DHT22;3006;50.956;7.002;2022-12-07T08:49:05;6.30;99.90
5960;DHT22;3006;50.956;7.002;2022-12-07T08:51:36;6.40;99.90
5960;DHT22;3006;50.956;7.002;2022-12-07T08:54:07;6.40;99.90
5960;DHT22;3006;50.956;7.002;2022-12-07T08:56:36;6.50;99.90
5960;DHT22;3006;50.956;7.002;2022-12-07T08:59:05;6.50;99.90
5960;DHT22;3006;50.956;7.002;2022-12-07T09:01:34;6.50;99.90
5960;DHT22;3006;50.956;7.002;2022-12-07T09:04:03;6.50;99.90
5960;DHT22;3006;50.956;7.002;2022-12-07T09:06:32;6.40;99.90
5960;DHT22;3006;50.956;7.002;2022-12-07T09:09:01;6.40;99.90
5960;DHT22;3006;50.956;7.002;2022-12-07T09:11:29;6.40;99.90
5960;DHT22;3006;50.956;7.002;2022-12-07T09:13:57;6.50;99.90
5960;DHT22;3006;50.956;7.002;2022-12-07T09:16:26;6.40;99.90
5960;DHT22;3006;50.956;7.002;2022-12-07T09:18:55;6.50;99.90
5960;DHT22;3006;50.956;7.002;2022-12-07T09:21:24;6.50;99.90
5960;DHT22;3006;50.956;7.002;2022-12-07T09:23:52;6.50;99.90
5960;DHT22;3006;50.956;7.002;2022-12-07T09:26:20;6.50;99.90
5960;DHT22;3006;50.956;7.002;2022-12-07T09:28:48;6.60;99.90
5960;DHT22;3006;50.956;7.002;2022-12-07T09:31:16;6.60;99.90
5960;DHT22;3006;50.956;7.002;2022-12-07T09:33:54;6.70;99.90
5960;DHT22;3006;50.956;7.002;2022-12-07T09:36:24;6.70;99.90
5960;DHT22;3006;50.956;7.002;2022-12-07T09:38:52;6.70;99.90
5960;DHT22;3006;50.956;7.002;2022-12-07T09:41:21;6.70;99.90
5960;DHT22;3006;50.956;7.002;2022-12-07T09:43:50;6.70;99.90
5960;DHT22;3006;50.956;7.002;2022-12-07T09:46:19;6.80;99.90
5960;DHT22;3006;50.956;7.002;2022-12-07T09:48:49;6.90;99.90
5960;DHT22;3006;50.956;7.002;2022-12-07T09:51:19;6.90;99.90
5960;DHT22;3006;50.956;7.002;2022-12-07T09:53:54;7.00;99.90
5960;DHT22;3006;50.956;7.002;2022-12-07T09:56:23;7.00;99.90
5960;DHT22;3006;50.956;7.002;2022-12-07T09:58:56;7.10;99.90
5960;DHT22;3006;50.956;7.002;2022-12-07T10:01:29;7.10;99.90
5960;DHT22;3006;50.956;7.002;2022-12-07T10:04:02;7.10;99.90
5960;DHT22;3006;50.956;7.002;2022-12-07T10:06:34;7.20;99.90
5960;DHT22;3006;50.956;7.002;2022-12-07T10:09:09;7.10;99.90
5960;DHT22;3006;50.956;7.002;2022-12-07T10:12:02;7.00;99.90
5960;DHT22;3006;50.956;7.002;2022-12-07T10:14:32;7.10;99.90
5960;DHT22;3006;50.956;7.002;2022-12-07T10:17:36;7.10;99.90
5960;DHT22;3006;50.956;7.002;2022-12-07T10:20:20;7.00;99.90
5960;DHT22;3006;50.956;7.002;2022-12-07T10:23:00;7.00;99.90
5960;DHT22;3006;50.956;7.002;2022-12-07T10:25:32;7.00;99.90
5960;DHT22;3006;50.956;7.002;2022-12-07T10:28:03;7.00;99.90
5960;DHT22;3006;50.956;7.002;2022-12-07T10:30:48;7.10;99.90
5960;DHT22;3006;50.956;7.002;2022-12-07T10:33:32;7.10;99.90
5960;DHT22;3006;50.956;7.002;2022-12-07T10:36:09;7.10;99.90
5960;DHT22;3006;50.956;7.002;2022-12-07T10:38:45;7.10;99.90
5960;DHT22;3006;50.956;7.002;2022-12-07T10:41:15;7.10;99.90
5960;DHT22;3006;50.956;7.002;2022-12-07T10:43:52;7.10;99.90
5960;DHT22;3006;50.956;7.002;2022-12-07T10:46:50;7.10;99.90
5960;DHT22;3006;50.956;7.002;2022-12-07T10:49:36;7.10;99.90
5960;DHT22;3006;50.956;7.002;2022-12-07T10:52:16;7.10;99.90
5960;DHT22;3006;50.956;7.002;2022-12-07T10:54:51;7.10;99.90
5960;DHT22;3006;50.956;7.002;2022-12-07T10:57:37;7.10;99.90
5960;DHT22;3006;50.956;7.002;2022-12-07T11:00:19;7.10;99.90
5960;DHT22;3006;50.956;7.002;2022-12-07T11:03:14;7.10;99.90
5960;DHT22;3006;50.956;7.002;2022-12-07T11:05:52;7.20;99.90
5960;DHT22;3006;50.956;7.002;2022-12-07T11:08:44;7.20;99.90
5960;DHT22;3006;50.956;7.002;2022-12-07T11:11:16;7.30;99.90
5960;DHT22;3006;50.956;7.002;2022-12-07T11:13:52;7.40;99.90
5960;DHT22;3006;50.956;7.002;2022-12-07T11:16:36;7.30;99.90
5960;DHT22;3006;50.956;7.002;2022-12-07T11:19:19;7.40;99.90
5960;DHT22;3006;50.956;7.002;2022-12-07T11:21:57;7.40;99.90
5960;DHT22;3006;50.956;7.002;2022-12-07T11:24:31;7.40;99.90
5960;DHT22;3006;50.956;7.002;2022-12-07T11:27:09;7.40;99.90
5960;DHT22;3006;50.956;7.002;2022-12-07T11:30:01;7.50;99.90
5960;DHT22;3006;50.956;7.002;2022-12-07T11:32:49;7.50;99.90
5960;DHT22;3006;50.956;7.002;2022-12-07T11:35:29;7.50;99.90
5960;DHT22;3006;50.956;7.002;2022-12-07T11:38:09;7.60;99.90
5960;DHT22;3006;50.956;7.002;2022-12-07T11:40:38;7.50;99.90
5960;DHT22;3006;50.956;7.002;2022-12-07T11:43:15;7.50;99.90
5960;DHT22;3006;50.956;7.002;2022-12-07T11:45:49;7.50;99.90
5960;DHT22;3006;50.956;7.002;2022-12-07T11:48:24;7.40;99.90
5960;DHT22;3006;50.956;7.002;2022-12-07T11:50:56;7.40;99.90
5960;DHT22;3006;50.956;7.002;2022-12-07T11:53:27;7.40;99.90
5960;DHT22;3006;50.956;7.002;2022-12-07T11:56:03;7.40;99.90
5960;DHT22;3006;50.956;7.002;2022-12-07T11:58:47;7.40;99.90
5960;DHT22;3006;50.956;7.002;2022-12-07T12:01:29;7.50;99.90
5960;DHT22;3006;50.956;7.002;2022-12-07T12:04:05;7.50;99.90
5960;DHT22;3006;50.956;7.002;2022-12-07T12:06:34;7.50;99.90
5960;DHT22;3006;50.956;7.002;2022-12-07T12:09:05;7.50;99.90
5960;DHT22;3006;50.956;7.002;2022-12-07T12:12:17;7.60;99.90
5960;DHT22;3006;50.956;7.002;2022-12-07T12:15:22;7.70;99.90
5960;DHT22;3006;50.956;7.002;2022-12-07T12:20:48;7.90;99.90
5960;DHT22;3006;50.956;7.002;2022-12-07T12:23:22;7.90;99.90
5960;DHT22;3006;50.956;7.002;2022-12-07T12:25:53;7.90;99.90
5960;DHT22;3006;50.956;7.002;2022-12-07T12:28:29;7.90;99.90
5960;DHT22;3006;50.956;7.002;2022-12-07T12:31:09;7.90;99.90
5960;DHT22;3006;50.956;7.002;2022-12-07T12:33:43;7.80;99.90
5960;DHT22;3006;50.956;7.002;2022-12-07T12:36:27;7.80;99.90
5960;DHT22;3006;50.956;7.002;2022-12-07T12:39:12;7.80;99.90
5960;DHT22;3006;50.956;7.002;2022-12-07T12:41:55;7.70;99.90
5960;DHT22;3006;50.956;7.002;2022-12-07T12:47:52;7.60;99.90
5960;DHT22;3006;50.956;7.002;2022-12-07T12:50:28;7.60;99.90
5960;DHT22;3006;50.956;7.002;2022-12-07T12:53:21;7.60;99.90
5960;DHT22;3006;50.956;7.002;2022-12-07T12:56:23;7.60;99.90
5960;DHT22;3006;50.956;7.002;2022-12-07T13:02:08;7.70;99.90
5960;DHT22;3006;50.956;7.002;2022-12-07T13:04:50;7.60;99.90
5960;DHT22;3006;50.956;7.002;2022-12-07T13:07:49;7.60;99.90
5960;DHT22;3006;50.956;7.002;2022-12-07T13:10:37;7.50;99.90
5960;DHT22;3006;50.956;7.002;2022-12-07T13:13:30;7.40;99.90
5960;DHT22;3006;50.956;7.002;2022-12-07T13:16:37;7.50;99.90
5960;DHT22;3006;50.956;7.002;2022-12-07T13:22:42;7.60;99.90
5960;DHT22;3006;50.956;7.002;2022-12-07T13:25:19;7.60;99.90
5960;DHT22;3006;50.956;7.002;2022-12-07T13:27:54;7.70;99.90
5960;DHT22;3006;50.956;7.002;2022-12-07T13:30:23;7.70;99.90
5960;DHT22;3006;50.956;7.002;2022-12-07T13:32:53;7.60;99.90
5960;DHT22;3006;50.956;7.002;2022-12-07T13:35:33;7.70;99.90
5960;DHT22;3006;50.956;7.002;2022-12-07T13:38:04;7.80;99.90
5960;DHT22;3006;50.956;7.002;2022-12-07T13:40:35;7.80;99.90
5960;DHT22;3006;50.956;7.002;2022-12-07T13:43:05;7.80;99.90
5960;DHT22;3006;50.956;7.002;2022-12-07T13:45:41;7.80;99.90
5960;DHT22;3006;50.956;7.002;2022-12-07T13:48:21;7.80;99.90
5960;DHT22;3006;50.956;7.002;2022-12-07T13:50:55;7.80;99.90
5960;DHT22;3006;50.956;7.002;2022-12-07T13:53:24;7.80;99.90
5960;DHT22;3006;50.956;7.002;2022-12-07T13:55:56;7.80;99.90
5960;DHT22;3006;50.956;7.002;2022-12-07T13:58:25;7.80;99.90
5960;DHT22;3006;50.956;7.002;2022-12-07T14:00:54;7.80;99.90
5960;DHT22;3006;50.956;7.002;2022-12-07T14:03:31;7.90;99.90
5960;DHT22;3006;50.956;7.002;2022-12-07T14:06:16;7.80;99.90
5960;DHT22;3006;50.956;7.002;2022-12-07T14:08:44;7.80;99.90
5960;DHT22;3006;50.956;7.002;2022-12-07T14:11:17;7.70;99.90
5960;DHT22;3006;50.956;7.002;2022-12-07T14:13:55;7.70;99.90
5960;DHT22;3006;50.956;7.002;2022-12-07T14:16:26;7.70;99.90
5960;DHT22;3006;50.956;7.002;2022-12-07T14:18:57;7.70;99.90
5960;DHT22;3006;50.956;7.002;2022-12-07T14:21:26;7.70;99.90
5960;DHT22;3006;50.956;7.002;2022-12-07T14:24:15;7.70;99.90
5960;DHT22;3006;50.956;7.002;2022-12-07T14:26:47;7.60;99.90
5960;DHT22;3006;50.956;7.002;2022-12-07T14:29:20;7.60;99.90
5960;DHT22;3006;50.956;7.002;2022-12-07T14:31:48;7.60;99.90
5960;DHT22;3006;50.956;7.002;2022-12-07T14:34:16;7.50;99.90
5960;DHT22;3006;50.956;7.002;2022-12-07T14:36:44;7.50;99.90
5960;DHT22;3006;50.956;7.002;2022-12-07T14:39:12;7.50;99.90
5960;DHT22;3006;50.956;7.002;2022-12-07T14:41:40;7.60;99.90
5960;DHT22;3006;50.956;7.002;2022-12-07T14:44:23;7.60;99.90
5960;DHT22;3006;50.956;7.002;2022-12-07T14:46:59;7.60;99.90
5960;DHT22;3006;50.956;7.002;2022-12-07T14:49:47;7.60;99.90
5960;DHT22;3006;50.956;7.002;2022-12-07T14:52:18;7.60;99.90
5960;DHT22;3006;50.956;7.002;2022-12-07T14:55:13;7.60;99.90
5960;DHT22;3006;50.956;7.002;2022-12-07T14:57:43;7.60;99.90
5960;DHT22;3006;50.956;7.002;2022-12-07T15:00:16;7.60;99.90
5960;DHT22;3006;50.956;7.002;2022-12-07T15:02:44;7.60;99.90
5960;DHT22;3006;50.956;7.002;2022-12-07T15:05:13;7.70;99.90
5960;DHT22;3006;50.956;7.002;2022-12-07T15:07:43;7.70;99.90
5960;DHT22;3006;50.956;7.002;2022-12-07T15:10:16;7.60;99.90
5960;DHT22;3006;50.956;7.002;2022-12-07T15:12:50;7.60;99.90
5960;DHT22;3006;50.956;7.002;2022-12-07T15:15:19;7.60;99.90
5960;DHT22;3006;50.956;7.002;2022-12-07T15:17:47;7.60;99.90
5960;DHT22;3006;50.956;7.002;2022-12-07T15:20:15;7.60;99.90
5960;DHT22;3006;50.956;7.002;2022-12-07T15:22:44;7.50;99.90
5960;DHT22;3006;50.956;7.002;2022-12-07T15:25:13;7.50;99.90
5960;DHT22;3006;50.956;7.002;2022-12-07T15:27:41;7.50;99.90
5960;DHT22;3006;50.956;7.002;2022-12-07T15:30:10;7.50;99.90
5960;DHT22;3006;50.956;7.002;2022-12-07T15:32:39;7.40;99.90
5960;DHT22;3006;50.956;7.002;2022-12-07T15:35:08;7.30;99.90
5960;DHT22;3006;50.956;7.002;2022-12-07T15:37:36;7.00;99.90
5960;DHT22;3006;50.956;7.002;2022-12-07T15:40:06;6.90;99.90
5960;DHT22;3006;50.956;7.002;2022-12-07T15:42:35;6.90;99.90
5960;DHT22;3006;50.956;7.002;2022-12-07T15:45:04;7.00;99.90
5960;DHT22;3006;50.956;7.002;2022-12-07T15:47:35;7.00;99.90
5960;DHT22;3006;50.956;7.002;2022-12-07T15:50:25;7.00;99.90
5960;DHT22;3006;50.956;7.002;2022-12-07T15:52:53;7.00;99.90
5960;DHT22;3006;50.956;7.002;2022-12-07T15:55:21;7.00;99.90
5960;DHT22;3006;50.956;7.002;2022-12-07T15:57:49;6.90;99.90
5960;DHT22;3006;50.956;7.002;2022-12-07T16:00:18;6.90;99.90
5960;DHT22;3006;50.956;7.002;2022-12-07T16:02:46;6.90;99.90
5960;DHT22;3006;50.956;7.002;2022-12-07T16:05:14;6.80;99.90
5960;DHT22;3006;50.956;7.002;2022-12-07T16:07:44;6.80;99.90
5960;DHT22;3006;50.956;7.002;2022-12-07T16:10:13;6.80;99.90
5960;DHT22;3006;50.956;7.002;2022-12-07T16:12:41;6.70;99.90
5960;DHT22;3006;50.956;7.002;2022-12-07T16:15:10;6.60;99.90
5960;DHT22;3006;50.956;7.002;2022-12-07T16:17:38;6.70;99.90
5960;DHT22;3006;50.956;7.002;2022-12-07T16:20:07;6.70;99.90
5960;DHT22;3006;50.956;7.002;2022-12-07T16:22:35;6.70;99.90
5960;DHT22;3006;50.956;7.002;2022-12-07T16:25:05;6.70;99.90
5960;DHT22;3006;50.956;7.002;2022-12-07T16:27:34;6.70;99.90
5960;DHT22;3006;50.956;7.002;2022-12-07T16:30:03;6.80;99.90
5960;DHT22;3006;50.956;7.002;2022-12-07T16:32:31;6.80;99.90
5960;DHT22;3006;50.956;7.002;2022-12-07T16:35:00;6.70;99.90
5960;DHT22;3006;50.956;7.002;2022-12-07T16:37:28;6.70;99.90
5960;DHT22;3006;50.956;7.002;2022-12-07T16:39:56;6.80;99.90
5960;DHT22;3006;50.956;7.002;2022-12-07T16:42:26;6.70;99.90
5960;DHT22;3006;50.956;7.002;2022-12-07T16:44:54;6.70;99.90
5960;DHT22;3006;50.956;7.002;2022-12-07T16:47:22;6.70;99.90
5960;DHT22;3006;50.956;7.002;2022-12-07T16:49:50;6.70;99.90
5960;DHT22;3006;50.956;7.002;2022-12-07T16:52:18;6.70;99.90
5960;DHT22;3006;50.956;7.002;2022-12-07T16:54:48;6.80;99.90
5960;DHT22;3006;50.956;7.002;2022-12-07T16:57:17;6.80;99.90
5960;DHT22;3006;50.956;7.002;2022-12-07T16:59:51;6.80;99.90
5960;DHT22;3006;50.956;7.002;2022-12-07T17:02:19;6.80;99.90
5960;DHT22;3006;50.956;7.002;2022-12-07T17:04:48;6.80;99.90